Time;durP1;ratioP1;P1;durP2;ratioP2;P2;SDS_P1;SDS_P2;PMS_P1;PMS_P2;Temp;Humidity;BMP_temperature;BMP_pressure;BME280_temperature;BME280_humidity;BME280_pressure;Samples;Min_cycle;Max_cycle;Signal;HPM_P1;HPM_P2
2022/06/07 00:01:07;;;;;;;3.88;2.20;;;;;;;19.04;100.00;100133.38;4993071;28;20133;-63
2022/06/07 00:03:32;;;;;;;6.25;1.98;;;;;;;19.00;100.00;100127.31;5005554;28;20037;-63
2022/06/07 00:05:58;;;;;;;4.70;1.90;;;;;;;19.00;99.98;100126.44;5012930;28;20034;-63
2022/06/07 00:08:23;;;;;;;6.93;2.15;;;;;;;18.99;100.00;100124.72;5012705;28;20473;-64
2022/06/07 00:10:50;;;;;;;3.53;1.80;;;;;;;19.00;100.00;100121.91;5012267;28;20525;-64
2022/06/07 00:13:17;;;;;;;4.28;2.22;;;;;;;19.01;100.00;100128.19;4992933;28;20076;-64
2022/06/07 00:15:43;;;;;;;3.50;1.98;;;;;;;18.94;100.00;100121.44;5010013;28;20058;-64
2022/06/07 00:18:10;;;;;;;4.13;2.30;;;;;;;18.91;100.00;100110.88;5012421;28;20152;-64
2022/06/07 00:20:38;;;;;;;5.05;1.90;;;;;;;18.90;100.00;100114.50;5012746;28;20018;-64
2022/06/07 00:23:06;;;;;;;5.13;2.38;;;;;;;18.87;100.00;100114.72;5012412;28;20032;-64
2022/06/07 00:25:32;;;;;;;5.22;2.58;;;;;;;18.91;100.00;100113.56;4994048;28;20026;-64
2022/06/07 00:27:57;;;;;;;3.40;2.05;;;;;;;18.79;100.00;100122.44;4992600;28;20033;-65
2022/06/07 00:30:23;;;;;;;5.15;2.42;;;;;;;18.70;100.00;100123.03;4992665;28;20026;-65
2022/06/07 00:32:49;;;;;;;4.40;2.60;;;;;;;18.44;100.00;100104.94;4992720;28;20034;-65
2022/06/07 00:35:15;;;;;;;4.32;2.53;;;;;;;18.52;100.00;100113.44;4974728;28;20034;-65
2022/06/07 00:37:41;;;;;;;4.53;1.80;;;;;;;18.50;100.00;100115.34;4992746;28;20460;-65
2022/06/07 00:40:07;;;;;;;5.85;2.38;;;;;;;18.46;100.00;100108.41;4992652;28;20026;-65
2022/06/07 00:42:34;;;;;;;10.38;2.80;;;;;;;18.45;100.00;100112.94;4992287;28;20486;-65
2022/06/07 00:44:59;;;;;;;4.85;2.70;;;;;;;18.45;100.00;100109.38;4992397;28;20037;-65
2022/06/07 00:47:27;;;;;;;6.25;2.85;;;;;;;18.38;100.00;100107.03;4992823;28;20030;-65
2022/06/07 00:50:10;;;;;;;4.22;2.17;;;;;;;18.35;100.00;100096.44;4992051;28;20034;-66
2022/06/07 00:52:36;;;;;;;3.78;2.30;;;;;;;18.31;100.00;100100.31;4992398;28;20173;-66
2022/06/07 00:55:04;;;;;;;4.55;2.40;;;;;;;18.30;100.00;100090.50;4992141;28;20147;-66
2022/06/07 00:57:30;;;;;;;5.10;2.00;;;;;;;18.37;100.00;100094.53;5009495;28;20038;-66
2022/06/07 00:59:55;;;;;;;5.15;2.40;;;;;;;18.34;100.00;100086.66;5011609;28;20145;-66
2022/06/07 01:02:21;;;;;;;4.47;2.05;;;;;;;18.31;100.00;100089.53;5011758;28;20033;-66
2022/06/07 01:04:47;;;;;;;3.28;2.45;;;;;;;18.32;100.00;100083.19;5011344;28;20037;-66
2022/06/07 01:12:42;;;;;;;3.90;2.05;;;;;;;18.24;100.00;100080.13;5010448;28;20108;-66
2022/06/07 01:15:09;;;;;;;6.65;2.10;;;;;;;18.31;100.00;100077.91;5009462;28;20148;-66
2022/06/07 01:17:35;;;;;;;4.07;2.22;;;;;;;18.35;100.00;100069.53;5008962;28;20030;-66
2022/06/07 01:20:01;;;;;;;3.78;2.25;;;;;;;18.30;100.00;100071.63;5009800;28;20022;-66
2022/06/07 01:22:26;;;;;;;3.22;2.20;;;;;;;18.36;100.00;100068.56;5010442;28;20033;-66
2022/06/07 01:24:53;;;;;;;3.88;2.28;;;;;;;18.32;100.00;100060.75;5010348;28;20021;-66
2022/06/07 01:27:20;;;;;;;4.35;2.40;;;;;;;18.29;100.00;100064.53;5009862;28;20076;-66
2022/06/07 01:29:45;;;;;;;6.30;2.55;;;;;;;18.33;100.00;100075.97;5011424;28;20025;-66
2022/06/07 01:32:12;;;;;;;4.13;2.42;;;;;;;18.34;100.00;100073.19;5011497;28;20044;-64
2022/06/07 01:34:41;;;;;;;4.53;2.05;;;;;;;18.40;100.00;100076.50;5011231;28;20073;-64
2022/06/07 01:37:07;;;;;;;4.07;2.33;;;;;;;18.31;100.00;100075.19;5011430;28;20448;-64
2022/06/07 01:42:17;;;;;;;3.70;1.98;;;;;;;18.33;100.00;100068.75;5011420;28;20121;-64
2022/06/07 01:44:47;;;;;;;3.67;2.10;;;;;;;18.34;100.00;100067.81;5011135;28;20108;-64
2022/06/07 01:47:19;;;;;;;4.30;2.13;;;;;;;18.37;100.00;100062.22;5010173;28;20469;-64
2022/06/07 01:49:45;;;;;;;3.05;2.22;;;;;;;18.37;100.00;100059.53;5011246;28;20105;-64
2022/06/07 01:52:12;;;;;;;5.88;2.22;;;;;;;18.36;100.00;100055.09;5011385;28;20438;-64
2022/06/07 01:54:38;;;;;;;5.10;2.20;;;;;;;18.38;100.00;100063.09;5011044;28;20036;-64
2022/06/07 01:57:05;;;;;;;3.45;1.92;;;;;;;18.37;100.00;100056.81;5011219;28;20461;-64
2022/06/07 01:59:32;;;;;;;3.90;1.88;;;;;;;18.40;100.00;100045.03;5011137;28;20393;-64
2022/06/07 02:01:58;;;;;;;2.70;1.85;;;;;;;18.40;100.00;100042.34;5010858;28;20507;-64
2022/06/07 02:04:24;;;;;;;3.53;2.10;;;;;;;18.41;100.00;100040.50;5010446;28;20060;-64
2022/06/07 02:06:52;;;;;;;3.33;2.17;;;;;;;18.42;100.00;100053.03;5011230;28;20404;-65
2022/06/07 02:09:18;;;;;;;3.47;1.95;;;;;;;18.44;100.00;100053.75;5008908;28;20065;-64
2022/06/07 02:11:45;;;;;;;2.85;1.77;;;;;;;18.26;100.00;100021.66;5007720;28;20072;-64
2022/06/07 02:14:11;;;;;;;5.05;2.20;;;;;;;18.44;100.00;100043.00;5007597;28;20034;-64
2022/06/07 02:16:40;;;;;;;3.95;2.03;;;;;;;18.38;100.00;100037.00;5007849;28;20114;-64
2022/06/07 02:19:06;;;;;;;4.25;2.15;;;;;;;18.42;100.00;100037.72;5007790;28;20018;-64
2022/06/07 02:21:32;;;;;;;3.58;2.13;;;;;;;18.40;100.00;100033.41;5009415;28;20030;-64
2022/06/07 02:23:58;;;;;;;3.72;2.15;;;;;;;18.38;100.00;100025.38;5003748;28;20042;-64
2022/06/07 02:26:28;;;;;;;3.95;2.35;;;;;;;18.38;100.00;100026.22;4989644;28;20050;-64
2022/06/07 02:28:57;;;;;;;7.90;2.60;;;;;;;18.36;100.00;100028.19;4990704;28;20492;-64
2022/06/07 02:31:24;;;;;;;3.53;2.10;;;;;;;18.34;100.00;100024.72;4991191;28;20027;-64
2022/06/07 02:33:51;;;;;;;4.32;2.30;;;;;;;18.32;100.00;100025.75;4991255;28;20038;-64
2022/06/07 02:36:17;;;;;;;6.03;2.25;;;;;;;18.32;100.00;100023.94;4991243;28;20425;-64
2022/06/07 02:38:44;;;;;;;4.05;2.28;;;;;;;18.30;100.00;100016.94;4991230;28;20065;-64
2022/06/07 02:41:12;;;;;;;3.33;2.10;;;;;;;18.27;100.00;100017.97;4991088;28;20037;-64
2022/06/07 02:43:37;;;;;;;2.88;1.85;;;;;;;18.24;100.00;100012.78;4990930;28;20542;-64
2022/06/07 02:46:03;;;;;;;4.70;2.20;;;;;;;18.22;100.00;100012.03;4991052;28;20022;-64
2022/06/07 02:48:29;;;;;;;5.03;2.67;;;;;;;18.26;100.00;100026.16;4991058;28;20037;-64
2022/06/07 02:50:54;;;;;;;5.65;2.20;;;;;;;18.21;100.00;100017.50;4991002;28;20432;-64
2022/06/07 02:53:19;;;;;;;5.47;2.80;;;;;;;18.13;100.00;100009.94;4989676;28;20101;-64
2022/06/07 02:55:45;;;;;;;4.00;2.28;;;;;;;18.06;100.00;99997.81;4990880;28;20057;-65
2022/06/07 02:58:11;;;;;;;4.50;2.42;;;;;;;18.18;100.00;100013.19;4991430;28;20062;-64
2022/06/07 03:00:36;;;;;;;7.38;2.17;;;;;;;18.16;100.00;100004.34;5009935;28;20029;-64
2022/06/07 03:03:02;;;;;;;8.30;2.72;;;;;;;18.20;100.00;100010.41;5011958;28;20516;-65
2022/06/07 03:05:28;;;;;;;4.82;2.33;;;;;;;17.96;100.00;99977.81;5012017;28;20389;-64
2022/06/07 03:07:53;;;;;;;4.90;2.95;;;;;;;18.18;100.00;100010.50;5012019;28;20021;-64
2022/06/07 03:10:19;;;;;;;6.03;2.35;;;;;;;18.19;100.00;100004.16;5011982;28;20046;-64
2022/06/07 03:12:45;;;;;;;6.97;2.97;;;;;;;18.24;100.00;100002.03;5011804;28;20101;-64
2022/06/07 03:15:11;;;;;;;10.27;3.10;;;;;;;18.27;100.00;100007.22;4994906;28;20124;-64
2022/06/07 03:17:37;;;;;;;4.20;2.47;;;;;;;18.23;100.00;99994.91;5013888;28;20065;-63
2022/06/07 03:20:05;;;;;;;13.00;2.78;;;;;;;18.33;100.00;99992.50;5013901;28;20105;-64
2022/06/07 03:22:31;;;;;;;11.20;4.50;;;;;;;18.28;100.00;100003.56;5013850;28;20072;-64
2022/06/07 03:24:56;;;;;;;5.78;2.67;;;;;;;18.24;100.00;99996.63;5013344;28;20493;-64
2022/06/07 03:27:21;;;;;;;10.63;3.10;;;;;;;18.21;100.00;100007.59;5013208;28;20060;-64
2022/06/07 03:29:47;;;;;;;8.77;2.90;;;;;;;18.12;100.00;100002.78;5013316;28;20022;-64
2022/06/07 03:32:12;;;;;;;12.18;2.50;;;;;;;18.08;100.00;100005.78;5013679;28;20104;-64
2022/06/07 03:34:39;;;;;;;4.68;2.70;;;;;;;18.00;100.00;100008.97;5013438;28;20040;-64
2022/06/07 03:37:06;;;;;;;5.22;2.83;;;;;;;17.95;100.00;100016.47;5012984;28;20054;-64
2022/06/07 03:39:31;;;;;;;4.68;2.38;;;;;;;17.86;100.00;100006.28;5012352;28;20026;-64
2022/06/07 03:41:57;;;;;;;9.70;2.88;;;;;;;17.85;100.00;100012.63;5011811;28;20033;-64
2022/06/07 03:44:23;;;;;;;6.28;2.72;;;;;;;17.84;100.00;100010.88;5011862;28;20412;-64
2022/06/07 03:46:48;;;;;;;5.88;3.05;;;;;;;17.80;100.00;100012.03;5011707;28;20087;-64
2022/06/07 03:49:14;;;;;;;4.70;2.58;;;;;;;17.77;100.00;100012.25;5011711;28;20048;-65
2022/06/07 03:51:39;;;;;;;4.80;1.90;;;;;;;17.74;100.00;100017.78;5011724;28;20116;-65
2022/06/07 03:54:05;;;;;;;4.43;2.03;;;;;;;17.75;100.00;100024.03;5006679;28;20533;-65
2022/06/07 03:56:31;;;;;;;3.22;2.10;;;;;;;17.73;100.00;100023.25;4993211;28;20022;-65
2022/06/07 03:58:57;;;;;;;6.90;2.50;;;;;;;17.67;100.00;100018.25;5010118;28;20030;-64
2022/06/07 04:01:24;;;;;;;5.70;2.42;;;;;;;17.63;100.00;100019.41;5012825;28;20037;-64
2022/06/07 04:03:52;;;;;;;4.10;2.35;;;;;;;17.62;100.00;100029.31;5012896;28;20077;-64
2022/06/07 04:06:21;;;;;;;4.20;1.70;;;;;;;17.64;100.00;100032.78;5012695;28;20029;-64
2022/06/07 04:08:47;;;;;;;3.38;1.80;;;;;;;17.64;100.00;100031.91;5012640;28;20084;-65
2022/06/07 04:11:18;;;;;;;6.97;1.60;;;;;;;17.59;100.00;100025.94;5011874;28;20030;-65
2022/06/07 04:13:45;;;;;;;3.08;1.73;;;;;;;17.56;100.00;100029.66;5012898;28;20033;-66
2022/06/07 04:16:13;;;;;;;3.88;2.03;;;;;;;17.54;100.00;100030.72;5012431;28;20112;-64
2022/06/07 04:18:39;;;;;;;4.43;1.88;;;;;;;17.55;100.00;100032.44;5011837;28;20022;-64
2022/06/07 04:21:05;;;;;;;5.57;2.42;;;;;;;17.48;100.00;100026.59;5012410;28;20053;-64
2022/06/07 04:23:31;;;;;;;4.20;2.00;;;;;;;17.51;100.00;100037.16;5010677;28;20394;-63
2022/06/07 04:26:20;;;;;;;4.32;2.17;;;;;;;17.52;100.00;100044.28;4992687;28;20082;-63
2022/06/07 04:28:46;;;;;;;8.60;2.55;;;;;;;17.51;100.00;100047.91;4992827;28;20371;-63
2022/06/07 04:31:13;;;;;;;6.15;2.53;;;;;;;17.55;100.00;100054.84;4992751;28;20022;-63
2022/06/07 04:33:40;;;;;;;5.32;2.42;;;;;;;17.56;100.00;100059.25;4991826;28;20026;-63
2022/06/07 04:36:14;;;;;;;4.80;2.53;;;;;;;17.61;100.00;100070.59;4990382;28;20117;-63
2022/06/07 04:38:40;;;;;;;3.25;2.08;;;;;;;17.73;100.00;100067.19;4990695;28;20030;-63
2022/06/07 04:41:11;;;;;;;4.43;2.47;;;;;;;17.77;100.00;100067.88;4990701;28;20390;-63
2022/06/07 04:43:37;;;;;;;4.78;2.42;;;;;;;17.76;100.00;100063.47;4990739;28;20037;-63
2022/06/07 04:46:14;;;;;;;3.60;2.50;;;;;;;17.83;100.00;100062.97;4990429;28;20030;-63
2022/06/07 04:48:40;;;;;;;4.40;2.58;;;;;;;17.97;100.00;100059.44;4990697;28;20085;-63
2022/06/07 04:51:13;;;;;;;4.18;2.28;;;;;;;18.04;100.00;100069.72;4990484;28;20038;-63
2022/06/07 04:53:39;;;;;;;5.03;2.20;;;;;;;18.16;100.00;100060.88;4990464;28;20028;-63
2022/06/07 04:56:14;;;;;;;3.08;2.00;;;;;;;18.23;100.00;100064.06;4995963;28;20025;-63
2022/06/07 04:58:40;;;;;;;4.68;2.55;;;;;;;18.28;100.00;100078.09;4994403;28;20061;-63
2022/06/07 05:01:17;;;;;;;5.32;2.40;;;;;;;18.40;100.00;100073.78;5009041;28;20061;-63
2022/06/07 05:03:43;;;;;;;3.35;2.25;;;;;;;18.44;100.00;100056.47;5012112;28;20033;-63
2022/06/07 05:06:30;;;;;;;7.28;3.15;;;;;;;18.59;100.00;100072.53;5011575;28;20030;-63
2022/06/07 05:08:58;;;;;;;4.13;2.10;;;;;;;18.69;100.00;100072.78;5011881;28;20037;-63
2022/06/07 05:11:25;;;;;;;3.45;2.03;;;;;;;18.79;100.00;100084.69;5011792;28;20025;-63
2022/06/07 05:13:58;;;;;;;3.70;2.22;;;;;;;18.89;99.79;100080.44;4994136;28;20025;-63
2022/06/07 05:16:25;;;;;;;3.55;2.00;;;;;;;18.84;98.71;100077.19;5011418;28;20029;-63
2022/06/07 05:18:52;;;;;;;3.67;2.05;;;;;;;18.80;99.38;100081.91;5011695;28;20034;-63
2022/06/07 05:21:19;;;;;;;3.83;1.88;;;;;;;18.77;99.23;100067.75;5011415;28;20029;-63
2022/06/07 05:23:45;;;;;;;4.05;2.03;;;;;;;18.84;99.60;100078.06;5010705;28;20044;-63
2022/06/07 05:26:41;;;;;;;4.15;2.50;;;;;;;18.97;99.07;100083.50;5009860;28;20041;-65
2022/06/07 05:29:20;;;;;;;3.67;2.13;;;;;;;19.10;99.15;100082.59;5010068;28;20125;-65
2022/06/07 05:31:45;;;;;;;5.60;2.33;;;;;;;19.22;98.48;100089.00;5011517;28;20025;-64
2022/06/07 05:34:11;;;;;;;3.95;2.30;;;;;;;19.25;97.66;100069.91;5011352;28;20601;-64
2022/06/07 05:36:36;;;;;;;3.58;1.83;;;;;;;19.60;96.18;100098.13;5011100;28;20099;-64
2022/06/07 05:39:03;;;;;;;6.00;2.08;;;;;;;19.71;94.71;100098.25;5011369;28;20053;-64
2022/06/07 05:41:29;;;;;;;3.17;2.22;;;;;;;19.82;94.04;100106.47;5011287;28;20033;-64
2022/06/07 05:43:55;;;;;;;3.55;2.20;;;;;;;20.03;94.50;100110.34;5011427;28;20079;-64
2022/06/07 05:46:21;;;;;;;5.72;1.98;;;;;;;20.08;93.91;100113.59;5011184;28;20072;-64
2022/06/07 05:48:47;;;;;;;6.10;2.05;;;;;;;20.20;93.55;100115.50;5011109;28;20062;-64
2022/06/07 05:51:13;;;;;;;4.38;2.17;;;;;;;20.28;92.15;100110.41;5011034;28;20219;-64
2022/06/07 05:53:39;;;;;;;3.55;1.77;;;;;;;20.27;91.44;100119.50;5011254;28;20489;-64
2022/06/07 05:56:11;;;;;;;3.53;1.70;;;;;;;20.20;90.55;100118.19;5011254;28;20033;-64
2022/06/07 05:58:37;;;;;;;4.93;2.08;;;;;;;20.16;91.44;100110.41;5011123;28;20385;-64
2022/06/07 06:01:04;;;;;;;4.05;2.20;;;;;;;20.21;91.64;100101.03;5011274;28;20502;-64
2022/06/07 06:03:30;;;;;;;4.40;1.95;;;;;;;20.17;90.97;100113.00;5010762;28;20092;-64
2022/06/07 06:05:55;;;;;;;2.80;1.73;;;;;;;20.08;89.91;100108.22;5010717;28;20029;-64
2022/06/07 06:11:09;;;;;;;3.55;1.85;;;;;;;20.06;91.55;100115.56;5011035;28;20036;-64
2022/06/07 06:13:36;;;;;;;4.00;2.10;;;;;;;20.13;92.03;100110.59;5011139;28;20470;-64
2022/06/07 06:16:05;;;;;;;3.08;1.90;;;;;;;20.19;91.91;100119.19;5010173;28;20037;-64
2022/06/07 06:18:30;;;;;;;3.47;1.80;;;;;;;20.39;91.58;100129.44;5010456;28;20025;-64
2022/06/07 06:20:56;;;;;;;3.65;1.92;;;;;;;20.35;88.57;100122.53;5006798;28;20032;-64
2022/06/07 06:23:21;;;;;;;9.52;2.03;;;;;;;20.43;89.82;100106.63;5008751;28;20531;-64
2022/06/07 06:25:46;;;;;;;2.95;1.77;;;;;;;20.53;89.79;100099.59;5009162;28;20141;-64
2022/06/07 06:28:12;;;;;;;3.97;2.20;;;;;;;20.45;89.23;100095.69;5009464;28;20473;-64
2022/06/07 06:30:37;;;;;;;4.95;1.90;;;;;;;20.44;89.50;100100.25;5008742;28;20061;-64
2022/06/07 06:33:03;;;;;;;3.70;1.98;;;;;;;20.56;89.93;100095.81;5009097;28;20393;-64
2022/06/07 06:35:28;;;;;;;6.35;2.28;;;;;;;20.74;90.10;100095.31;5012586;28;20025;-64
2022/06/07 06:37:53;;;;;;;4.75;2.20;;;;;;;20.94;88.19;100107.38;5012893;28;20117;-64
2022/06/07 06:40:19;;;;;;;5.60;2.50;;;;;;;21.18;87.46;100104.75;5012643;28;20034;-64
2022/06/07 06:42:44;;;;;;;4.53;2.28;;;;;;;21.55;85.44;100100.97;5013136;28;20408;-64
2022/06/07 06:45:10;;;;;;;6.07;2.45;;;;;;;21.71;84.22;100106.97;5012962;28;20500;-64
2022/06/07 06:47:36;;;;;;;5.45;2.55;;;;;;;21.61;83.42;100112.25;5012437;28;20451;-64
2022/06/07 06:50:02;;;;;;;4.78;2.78;;;;;;;21.78;83.83;100102.81;5012327;28;20037;-64
2022/06/07 06:52:27;;;;;;;7.38;2.85;;;;;;;22.11;82.49;100102.91;5012570;28;20412;-64
2022/06/07 06:54:53;;;;;;;5.22;2.83;;;;;;;22.32;81.44;100114.78;5012284;28;20034;-64
2022/06/07 06:57:18;;;;;;;5.28;2.80;;;;;;;22.46;79.82;100106.41;5012608;28;20041;-64
2022/06/07 06:59:44;;;;;;;6.30;2.70;;;;;;;22.51;79.58;100108.75;5012160;28;20113;-64
2022/06/07 07:02:12;;;;;;;4.97;2.97;;;;;;;22.53;79.51;100110.41;5011342;28;20076;-64
2022/06/07 07:04:38;;;;;;;6.80;3.38;;;;;;;22.55;79.76;100105.72;5011621;28;20025;-64
2022/06/07 07:07:03;;;;;;;5.40;2.70;;;;;;;22.82;79.08;100103.47;5011724;28;20033;-64
2022/06/07 07:09:29;;;;;;;4.68;2.58;;;;;;;23.15;78.90;100103.44;5011238;28;20474;-64
2022/06/07 07:11:54;;;;;;;6.50;2.83;;;;;;;23.22;75.20;100112.78;5012640;28;20022;-64
2022/06/07 07:14:20;;;;;;;5.35;3.10;;;;;;;23.26;76.04;100106.13;5012563;28;20489;-64
2022/06/07 07:16:50;;;;;;;4.57;2.63;;;;;;;23.04;74.56;100108.88;5011910;28;20033;-63
2022/06/07 07:19:16;;;;;;;4.47;2.75;;;;;;;23.12;76.72;100094.66;5012003;28;20394;-64
2022/06/07 07:21:48;;;;;;;4.95;2.58;;;;;;;23.57;75.57;100100.84;5010229;28;20036;-64
2022/06/07 07:24:17;;;;;;;5.82;3.03;;;;;;;23.70;74.28;100096.09;5009397;28;20049;-65
2022/06/07 07:26:44;;;;;;;5.53;2.97;;;;;;;23.71;73.47;100089.66;5010012;28;20053;-65
2022/06/07 07:29:12;;;;;;;6.78;2.60;;;;;;;23.69;73.91;100097.13;5009573;28;20038;-65
2022/06/07 07:31:38;;;;;;;5.90;2.53;;;;;;;23.92;73.79;100090.56;5010168;28;20444;-64
2022/06/07 07:34:07;;;;;;;6.47;3.15;;;;;;;24.34;72.10;100078.69;5010330;28;20401;-65
2022/06/07 07:36:33;;;;;;;4.20;2.60;;;;;;;24.75;69.10;100081.34;5010513;28;20173;-65
2022/06/07 07:38:58;;;;;;;4.38;2.60;;;;;;;24.69;66.41;100084.63;5011472;28;20368;-65
2022/06/07 07:41:29;;;;;;;4.03;2.60;;;;;;;24.68;67.53;100086.47;5011862;28;20030;-65
2022/06/07 07:43:57;;;;;;;5.45;2.60;;;;;;;24.53;68.26;100086.94;5010589;28;20091;-65
2022/06/07 07:46:25;;;;;;;4.35;2.88;;;;;;;24.40;68.68;100080.84;5011581;28;20045;-65
2022/06/07 07:48:51;;;;;;;5.10;2.63;;;;;;;24.53;69.15;100084.22;5011698;28;20523;-65
2022/06/07 07:51:24;;;;;;;6.47;2.63;;;;;;;24.46;71.08;100085.78;5013098;28;20517;-65
2022/06/07 07:53:51;;;;;;;6.40;2.92;;;;;;;24.55;70.51;100074.94;5012670;28;20037;-65
2022/06/07 07:56:17;;;;;;;5.88;2.65;;;;;;;24.64;67.91;100086.84;5010733;28;20041;-65
2022/06/07 07:58:42;;;;;;;4.95;2.65;;;;;;;24.79;67.38;100080.09;5011753;28;20026;-64
2022/06/07 08:01:10;;;;;;;3.90;2.55;;;;;;;24.82;66.19;100079.81;5010872;28;20048;-64
2022/06/07 08:03:38;;;;;;;4.57;2.75;;;;;;;24.79;66.05;100068.31;5011710;28;20114;-64
2022/06/07 08:06:08;;;;;;;3.85;2.38;;;;;;;24.67;67.54;100073.88;5009830;28;20097;-64
2022/06/07 08:08:34;;;;;;;5.72;3.05;;;;;;;24.37;66.75;100075.69;5011383;28;20045;-64
2022/06/07 08:11:00;;;;;;;4.75;2.50;;;;;;;24.17;67.95;100074.72;5012023;28;20026;-64
2022/06/07 08:13:26;;;;;;;5.38;2.85;;;;;;;24.02;68.91;100075.22;5012921;28;20498;-63
2022/06/07 08:15:51;;;;;;;4.00;2.55;;;;;;;24.13;68.43;100069.72;5012650;28;20374;-65
2022/06/07 08:18:17;;;;;;;5.07;2.50;;;;;;;24.59;68.38;100064.66;5011805;28;20041;-64
2022/06/07 08:20:42;;;;;;;4.32;2.40;;;;;;;25.29;65.09;100068.16;5006835;28;20033;-64
2022/06/07 08:23:10;;;;;;;4.20;2.38;;;;;;;25.85;60.94;100055.56;5009377;28;20021;-64
2022/06/07 08:25:37;;;;;;;5.28;2.30;;;;;;;25.91;59.73;100063.13;5007597;28;20022;-65
2022/06/07 08:28:07;;;;;;;3.60;2.30;;;;;;;25.49;60.63;100063.59;5010381;28;20370;-65
2022/06/07 08:30:36;;;;;;;2.85;1.65;;;;;;;25.66;59.93;100057.44;5008425;28;20495;-63
2022/06/07 08:37:32;;;;;;;3.20;1.88;;;;;;;26.09;56.98;100062.44;5008680;28;20033;-64
2022/06/07 08:38:32;;;;;;;5.18;2.33;;;;;;;26.36;56.96;100063.34;5010458;28;20101;-64
2022/06/07 08:40:58;;;;;;;4.43;2.20;;;;;;;26.09;58.72;100067.88;5010537;28;20104;-64
2022/06/07 08:43:25;;;;;;;4.07;2.25;;;;;;;25.86;58.73;100060.00;5011024;28;20053;-65
2022/06/07 08:45:54;;;;;;;3.45;1.98;;;;;;;25.56;58.54;100062.03;5011777;28;20033;-64
2022/06/07 08:48:32;;;;;;;4.25;1.90;;;;;;;25.44;59.47;100058.59;5012009;28;20664;-65
2022/06/07 08:51:15;;;;;;;3.42;1.83;;;;;;;26.17;59.49;100049.78;5012221;28;20025;-65
2022/06/07 08:53:45;;;;;;;4.63;2.00;;;;;;;26.67;56.02;100053.09;5011277;28;20036;-65
2022/06/07 08:56:16;;;;;;;5.05;2.03;;;;;;;26.77;56.05;100056.63;5009845;28;20042;-65
2022/06/07 08:58:44;;;;;;;3.55;1.63;;;;;;;26.90;58.34;100054.41;5010486;28;20045;-65
2022/06/07 09:01:43;;;;;;;3.05;1.67;;;;;;;26.68;54.30;100062.97;5010799;28;20033;-65
2022/06/07 09:04:20;;;;;;;3.03;2.00;;;;;;;26.58;55.50;100056.66;5009894;28;20065;-65
2022/06/07 09:06:48;;;;;;;4.18;2.03;;;;;;;25.94;56.05;100062.88;5010282;28;20041;-65
2022/06/07 09:09:15;;;;;;;3.75;1.77;;;;;;;25.73;58.27;100056.72;5010638;28;20112;-65
2022/06/07 09:14:34;;;;;;;4.65;1.77;;;;;;;25.69;56.61;100046.25;5011540;28;20068;-65
2022/06/07 09:17:09;;;;;;;3.58;1.70;;;;;;;25.54;55.92;100051.28;5011753;28;20030;-65
2022/06/07 09:19:36;;;;;;;3.53;1.67;;;;;;;25.98;56.27;100051.69;5011452;28;20029;-65
2022/06/07 09:22:13;;;;;;;4.63;1.60;;;;;;;26.36;55.79;100040.69;5011612;28;20091;-65
2022/06/07 09:24:56;;;;;;;2.33;1.40;;;;;;;26.33;52.23;100040.97;5011242;28;20450;-65
2022/06/07 09:27:26;;;;;;;2.80;1.70;;;;;;;26.26;55.14;100039.88;5011324;28;20124;-65
2022/06/07 09:30:19;;;;;;;3.40;1.80;;;;;;;26.21;54.83;100036.72;5010433;28;20128;-65
2022/06/07 09:32:49;;;;;;;4.15;1.60;;;;;;;26.10;56.06;100035.03;5000702;28;20038;-65
2022/06/07 09:35:21;;;;;;;2.88;1.48;;;;;;;26.08;54.93;100036.19;5010961;28;20075;-65
2022/06/07 09:37:56;;;;;;;4.40;1.70;;;;;;;26.19;54.31;100033.28;5011644;28;20033;-65
2022/06/07 09:40:29;;;;;;;2.90;1.45;;;;;;;26.36;55.09;100043.44;5011290;28;20076;-66
2022/06/07 09:43:16;;;;;;;3.10;1.70;;;;;;;26.24;53.07;100036.44;5011426;28;20056;-65
2022/06/07 09:45:47;;;;;;;3.35;1.52;;;;;;;26.11;55.46;100039.50;5011158;28;20026;-66
2022/06/07 09:48:37;;;;;;;2.58;1.50;;;;;;;26.61;56.99;100034.53;5011515;28;20105;-65
2022/06/07 09:51:16;;;;;;;4.32;1.33;;;;;;;27.47;52.42;100032.16;5011090;28;20088;-65
2022/06/07 09:54:02;;;;;;;2.00;1.23;;;;;;;27.86;49.77;100040.88;5011128;28;20038;-64
2022/06/07 09:56:45;;;;;;;2.17;1.13;;;;;;;28.15;49.02;100020.47;5011336;28;20029;-65
2022/06/07 09:59:32;;;;;;;5.22;1.30;;;;;;;27.94;48.31;100033.63;5011183;28;20053;-65
2022/06/07 10:02:36;;;;;;;4.47;1.52;;;;;;;27.41;46.98;100030.06;5011093;28;20037;-65
2022/06/07 10:05:26;;;;;;;2.83;1.67;;;;;;;27.05;49.82;100022.84;5011117;28;20026;-65
2022/06/07 10:08:00;;;;;;;3.60;1.40;;;;;;;26.86;49.76;100028.41;5010742;28;20187;-65
2022/06/07 10:10:38;;;;;;;2.75;1.70;;;;;;;26.63;49.89;100016.16;5014882;28;20037;-65
2022/06/07 10:13:23;;;;;;;2.78;1.70;;;;;;;26.60;51.56;100019.19;5014654;28;20065;-65
2022/06/07 10:16:25;;;;;;;2.17;1.45;;;;;;;26.46;51.97;100009.63;4995249;28;20026;-65
2022/06/07 10:19:41;;;;;;;3.00;1.58;;;;;;;26.77;52.59;100007.50;4995350;28;20038;-64
2022/06/07 10:22:09;;;;;;;2.55;1.55;;;;;;;26.95;50.20;100005.66;4991540;28;20042;-65
2022/06/07 10:24:56;;;;;;;3.13;1.60;;;;;;;26.97;48.37;100006.34;5003703;28;20465;-65
2022/06/07 10:27:29;;;;;;;3.83;2.03;;;;;;;27.22;49.46;99991.94;5012493;28;20061;-65
2022/06/07 10:30:11;;;;;;;2.88;1.70;;;;;;;27.18;50.57;99993.28;5012654;28;20504;-65
2022/06/07 10:33:31;;;;;;;2.95;1.20;;;;;;;27.06;49.87;99991.78;5012765;28;20088;-65
2022/06/07 10:36:15;;;;;;;2.88;1.40;;;;;;;26.62;51.23;99992.59;4970927;28;20034;-65
2022/06/07 10:39:08;;;;;;;2.28;1.58;;;;;;;26.20;52.46;99980.44;5010250;28;20152;-65
2022/06/07 10:41:46;;;;;;;;;;;;;;;26.10;52.82;99987.78;5014835;28;20477;-65
2022/06/07 10:44:35;;;;;;;2.38;1.60;;;;;;;25.75;53.56;99985.72;5014564;28;20000;-65
2022/06/07 10:47:12;;;;;;;2.40;1.38;;;;;;;25.36;56.41;99982.19;5014391;28;20025;-65
2022/06/07 10:49:52;;;;;;;4.47;1.83;;;;;;;25.23;54.40;99981.59;5013270;28;20151;-65
2022/06/07 10:52:24;;;;;;;4.45;2.03;;;;;;;25.23;55.95;99983.44;5014135;28;20026;-65
2022/06/07 10:54:52;;;;;;;5.13;2.05;;;;;;;25.52;55.46;99979.72;5014012;28;20037;-65
2022/06/07 10:57:25;;;;;;;4.28;2.03;;;;;;;26.12;54.22;99978.47;5014520;28;20034;-65
2022/06/07 10:59:52;;;;;;;3.28;1.95;;;;;;;26.51;53.52;99973.69;5013867;28;20026;-65
2022/06/07 11:02:34;;;;;;;4.40;2.08;;;;;;;26.67;50.58;99979.41;5014171;28;20041;-65
2022/06/07 11:10:53;;;;;;;5.50;1.45;;;;;;;27.54;50.96;99959.47;4994184;28;20093;-65
2022/06/07 11:13:38;;;;;;;5.45;1.65;;;;;;;27.79;48.45;99957.78;4994723;28;20046;-65
2022/06/07 11:16:08;;;;;;;2.97;1.60;;;;;;;28.80;48.08;99955.09;4994139;28;20081;-65
2022/06/07 11:18:34;;;;;;;5.57;1.60;;;;;;;29.11;46.53;99953.47;5013544;28;20425;-65
2022/06/07 11:21:02;;;;;;;4.25;1.33;;;;;;;28.72;47.55;99946.84;5013181;28;20072;-65
2022/06/07 11:23:35;;;;;;;2.53;1.35;;;;;;;28.28;45.58;99949.75;5013440;28;20026;-65
2022/06/07 11:26:04;;;;;;;2.40;1.20;;;;;;;28.05;49.50;99945.84;5012281;28;20129;-65
2022/06/07 11:28:39;;;;;;;4.53;2.22;;;;;;;27.37;46.87;99956.75;5012701;28;20041;-65
2022/06/07 11:31:32;;;;;;;2.10;1.23;;;;;;;27.26;51.04;99955.09;5012398;28;20033;-65
2022/06/07 11:34:11;;;;;;;2.38;1.50;;;;;;;26.76;48.62;99951.16;5012361;28;20383;-64
2022/06/07 11:36:43;;;;;;;3.42;1.45;;;;;;;26.69;48.78;99944.59;5012591;28;20062;-65
2022/06/07 11:39:20;;;;;;;2.13;1.40;;;;;;;26.47;49.59;99951.34;5012207;28;20099;-65
2022/06/07 11:41:54;;;;;;;2.85;1.73;;;;;;;26.34;49.92;99939.06;5013286;28;20030;-65
2022/06/07 11:44:19;;;;;;;3.72;1.50;;;;;;;26.22;52.83;99934.78;5013246;28;20037;-65
2022/06/07 11:46:50;;;;;;;5.45;2.05;;;;;;;26.09;54.71;99928.84;5013251;28;20041;-65
2022/06/07 11:49:22;;;;;;;2.90;1.88;;;;;;;25.98;54.68;99931.72;5013309;28;20197;-65
2022/06/07 11:52:14;;;;;;;3.08;1.67;;;;;;;26.13;54.99;99924.81;5012972;28;20032;-65
2022/06/07 11:54:45;;;;;;;3.03;1.50;;;;;;;26.17;51.58;99923.47;4982760;28;20060;-65
2022/06/07 11:57:30;;;;;;;2.90;1.63;;;;;;;26.53;53.20;99925.28;5012992;28;20030;-65